Broken Bow Municipal Airport


Codes: KBBW/BBW
Name: Broken Bow Municipal Airport
City: Broken Bow
Country: United States
Elevation: 2547 ft.
Wikipedia:

Photos at Broken Bow Municipal Airport


   Photos courtesy of SpottingLog. You can add your own sightings and photos by signing up for a free trial today.



No photos found.

Weather at Broken Bow Municipal Airport


Time (UTC)DescriptionTempratureWindCloud coverageVisibilityPressureHumidity
23-May-2024 21:00Clear Sky24°C22 mph, S0%10000m1005hPa46%
24-May-2024 00:00Clear Sky24°C22 mph, SE1%10000m1002hPa53%
24-May-2024 03:00Moderate Rain16°C16 mph, NW7%2141m1004hPa78%
24-May-2024 06:00Moderate Rain11°C9 mph, NW46%10000m1004hPa80%
24-May-2024 09:00Clear Sky10°C13 mph, NW3%10000m1004hPa64%
24-May-2024 12:00Clear Sky8°C18 mph, NW1%10000m1007hPa75%
24-May-2024 15:00Clear Sky12°C25 mph, NW1%10000m1008hPa64%
24-May-2024 18:00Clear Sky17°C18 mph, NW2%10000m1009hPa44%
24-May-2024 21:00Clear Sky19°C13 mph, NW0%10000m1008hPa35%
25-May-2024 00:00Clear Sky20°C2 mph, NW0%10000m1008hPa41%
25-May-2024 03:00Few Clouds12°C7 mph, SE21%10000m1009hPa52%
25-May-2024 06:00Few Clouds10°C9 mph, S18%10000m1009hPa62%
25-May-2024 09:00Broken Clouds10°C9 mph, S73%10000m1008hPa68%
25-May-2024 12:00Overcast Clouds12°C13 mph, S86%10000m1007hPa68%
25-May-2024 15:00Overcast Clouds16°C20 mph, S100%10000m1005hPa63%
25-May-2024 18:00Overcast Clouds21°C22 mph, S97%10000m1002hPa49%
25-May-2024 21:00Overcast Clouds23°C18 mph, S100%10000m999hPa47%
26-May-2024 00:00Broken Clouds22°C13 mph, SE82%10000m996hPa59%
26-May-2024 03:00Moderate Rain15°C9 mph, NW72%5742m999hPa95%
26-May-2024 06:00Light Rain14°C4 mph, NW86%10000m997hPa98%
26-May-2024 09:00Broken Clouds12°C7 mph, NW66%10000m999hPa88%
26-May-2024 12:00Broken Clouds12°C11 mph, NW51%10000m1001hPa88%
26-May-2024 15:00Scattered Clouds15°C16 mph, NW45%10000m1003hPa79%
26-May-2024 18:00Scattered Clouds21°C16 mph, NW30%10000m1003hPa52%
26-May-2024 21:00Scattered Clouds23°C13 mph, NW40%10000m1002hPa43%
27-May-2024 00:00Scattered Clouds20°C16 mph, SW39%10000m1003hPa48%
27-May-2024 03:00Overcast Clouds15°C20 mph, NW93%10000m1008hPa66%
27-May-2024 06:00Broken Clouds11°C16 mph, NW63%10000m1012hPa75%
27-May-2024 09:00Clear Sky10°C9 mph, NW2%10000m1012hPa77%
27-May-2024 12:00Scattered Clouds12°C13 mph, NW34%10000m1014hPa69%
27-May-2024 15:00Scattered Clouds15°C16 mph, N47%10000m1015hPa71%
27-May-2024 18:00Broken Clouds17°C13 mph, N65%10000m1016hPa64%
27-May-2024 21:00Broken Clouds21°C7 mph, N80%10000m1014hPa47%
28-May-2024 00:00Broken Clouds20°C7 mph, NE69%10000m1014hPa54%
28-May-2024 03:00Clear Sky14°C7 mph, SE6%10000m1015hPa74%
28-May-2024 06:00Clear Sky12°C9 mph, SW3%10000m1016hPa82%
28-May-2024 09:00Clear Sky12°C9 mph, W5%10000m1016hPa76%
28-May-2024 12:00Few Clouds12°C9 mph, NW11%10000m1017hPa69%
28-May-2024 15:00Scattered Clouds17°C11 mph, N45%10000m1019hPa62%
28-May-2024 18:00Broken Clouds20°C9 mph, N59%10000m1018hPa51%